Usol'ye-Sibirskoye, Russia
Current Conditions -  °F | °C
As of 12:00 AM on Tuesday 25 Nov 2014 (Local Time) from UIII Reporting Station
Clear Clear  
Wind Chill: 19°   Ceiling: Unl
Heat Index: 28°   Visibility: 6mi
Dew Point: 19°   Wind: 11mph
Humidity: 69%   Direction: 160°SSE
Pressure: 29.38"   Gusts: NA
Location:  52.45°N, 103.39°E
Report Text: UIII 241600Z 16005MPS CAVOK M02/M07 Q0995 NOSIG RMK QFE705/094012CLRD60
Loading
Personal Weather Stations






























Interactive Weather Map New forecast layout! Learn more

10-Day Weather Forecast

Advertisements
Track Severe Weather on mobile